• Join FlightAware (Why Join?)
  • Login
  • US Flag 
10:47PM EDT


 

Airport Tracker/Info


-or-


 

Live Flight TrackerFlight Track Log ✈ POE946 ✈ 22-Aug-2014 ✈ KBOS - CYTZ

Flight Track Log - Related Links

Times and Time Zones

All times are in EDT time to prevent confusion due to time zone crossing. See the POE946 flight status page for this flight to view local times or setup timezone preferences in your user account.

Time Position Orientation Groundspeed Altitude Reporting Facility
EDT Latitude Longitude Course Direction KTS MPH feet Rate Location/Type
05:42PM 42.3833 -71.0000 North 141 162 700  Level KA90
05:44PM 42.4286 -70.9936 North 152 175 2,700 1,500 Climbing Boston Center
05:45PM 42.4869 -70.9786 11° North 198 228 4,100 1,800 Climbing Boston Center
05:46PM 42.5403 -71.0083 338° Northwest 217 250 6,500 2,160 Climbing Boston Center
05:47PM 42.5958 -71.0700 321° Northwest 239 275 8,600 1,980 Climbing Boston Center
05:48PM 42.6489 -71.1292 321° Northwest 245 282 10,600 1,980 Climbing Boston Center
05:49PM 42.7053 -71.1908 321° Northwest 244 281 12,700 1,620 Climbing Boston Center
05:50PM 42.7586 -71.2483 322° Northwest 244 281 14,000 1,020 Climbing Boston Center
05:51PM 42.7936 -71.3475 296° West 284 327 14,900 900 Climbing Boston Center
05:52PM 42.8025 -71.4583 276° West 291 335 15,900 960 Climbing Boston Center
05:53PM 42.8139 -71.5789 277° West 296 341 17,000 900 Climbing Boston Center
05:54PM 42.8242 -71.6928 277° West 300 345 17,800 840 Climbing Boston Center
05:55PM 42.8350 -71.8044 278° West 300 345 18,800 840 Climbing Boston Center
05:56PM 42.8433 -71.9050 276° West 300 345 19,600 960 Climbing Boston Center
05:58PM 42.8664 -72.1461 278° West 292 336 21,800 1,020 Climbing Boston Center
05:59PM 42.8750 -72.2517 276° West 285 328 22,800 960 Climbing Boston Center
06:00PM 42.8858 -72.3603 278° West 280 322 23,800 540 Climbing Boston Center
06:01PM 42.8942 -72.4644 276° West 279 321 24,000 60 Climbing Boston Center
06:02PM 42.9044 -72.5781 277° West 294 338 24,000  Level Boston Center
06:03PM 42.9167 -72.7183 277° West 322 371 24,000  Level Boston Center
06:04PM 42.9278 -72.8431 277° West 327 376 24,000  Level Boston Center
06:05PM 42.9383 -72.9714 276° West 336 387 24,000  Level Boston Center
06:06PM 42.9486 -73.1039 276° West 345 397 24,000  Level Boston Center
06:07PM 42.9600 -73.2325 277° West 345 397 24,000  Level Boston Center
06:08PM 42.9700 -73.3742 276° West 345 397 24,000  Level Boston Center
06:10PM 42.9811 -73.5028 277° West 344 396 24,000  Level Boston Center
06:11PM 42.9911 -73.6297 276° West 342 394 24,000  Level Boston Center
06:12PM 43.0006 -73.7589 276° West 341 392 24,000  Level Boston Center
06:13PM 43.0114 -73.8861 277° West 340 391 24,000  Level Boston Center
06:14PM 43.0217 -74.0375 275° West 339 390 24,000  Level Boston Center
06:15PM 43.0314 -74.1644 276° West 338 389 24,000  Level Boston Center
06:16PM 43.0394 -74.2900 275° West 337 388 24,000  Level Boston Center
06:17PM 43.0481 -74.4161 275° West 335 386 24,000  Level Boston Center
06:18PM 43.0592 -74.5614 276° West 334 384 24,000  Level Boston Center
06:19PM 43.0683 -74.6878 276° West 334 384 24,000  Level Boston Center
06:20PM 43.0764 -74.8147 275° West 334 384 24,000  Level Boston Center
06:21PM 43.0850 -74.9436 275° West 335 386 24,000  Level Boston Center
06:22PM 43.0928 -75.0703 275° West 335 386 24,000  Level Boston Center
06:23PM 43.1011 -75.1981 275° West 334 384 24,000  Level Boston Center
06:24PM 43.1081 -75.3231 274° West 331 381 24,000  Level Boston Center
06:25PM 43.1186 -75.4722 276° West 331 381 24,000  Level Boston Center
06:26PM 43.1242 -75.5792 274° West 331 381 24,000  Level Boston Center
06:27PM 43.1342 -75.7278 275° West 329 379 24,000  Level Boston Center
06:28PM 43.1414 -75.8517 275° West 329 379 24,000  Level Boston Center
06:29PM 43.1481 -75.9767 274° West 329 379 24,000  Level Boston Center
06:30PM 43.1547 -76.1003 274° West 329 379 24,000  Level Boston Center
06:31PM 43.1614 -76.2236 274° West 328 377 24,000  Level Boston Center
06:32PM 43.1497 -76.3469 263° West 329 379 24,000 -480 Level Boston Center
06:33PM 43.1342 -76.4969 262° West 330 380 23,100 -960 Descending Boston Center
06:34PM 43.1239 -76.6239 264° West 334 384 22,100 -540 Descending Boston Center
06:35PM 43.1139 -76.7408 263° West 335 386 22,000 -60 Descending Boston Center
06:36PM 43.1017 -76.8864 263° West 327 376 22,000  Level Boston Center
06:37PM 43.0942 -76.9592 262° West 328 377 22,000  Level Cleveland Center
06:38PM 43.0939 -77.0819 270° West 328 377 22,000 -360 Level Cleveland Center
06:39PM 43.1125 -77.2289 280° West 329 379 21,300 -840 Descending Cleveland Center
06:40PM 43.1239 -77.3561 277° West 335 386 20,300 -960 Descending Cleveland Center
06:41PM 43.1364 -77.4850 278° West 340 391 19,400 -960 Descending Cleveland Center
06:42PM 43.1497 -77.6158 278° West 346 398 18,400 -1,020 Descending Cleveland Center
06:43PM 43.1644 -77.7725 277° West 347 399 17,300 -1,020 Descending Cleveland Center
06:44PM 43.1778 -77.9050 278° West 352 405 16,300 -960 Descending Cleveland Center
06:45PM 43.1894 -78.0356 277° West 353 406 15,300 -1,020 Descending Cleveland Center
06:46PM 43.2014 -78.1647 277° West 347 399 14,200 -1,020 Descending Cleveland Center
06:48PM 43.2125 -78.2864 277° West 331 381 13,200 -1,020 Descending Cleveland Center
06:49PM 43.2256 -78.4317 277° West 326 375 12,100 -1,020 Descending Cleveland Center
06:50PM 43.2339 -78.5550 275° West 330 380 11,200 -1,200 Descending Cleveland Center
06:52PM 43.2500 -78.7833 276° West 270 311 8,200 -1,260 Descending Toronto Center
06:53PM 43.2500 -78.8833 270° West 270 311 7,100 -600 Descending Toronto Center
06:54PM 43.2667 -78.9667 285° West 270 311 7,000 -540 Descending Toronto Center
06:55PM 43.2667 -79.0833 270° West 270 311 6,100 -960 Descending Toronto Center
06:56PM 43.2833 -79.1833 283° West 270 311 5,100 -1,020 Descending Toronto Center
06:57PM 43.3167 -79.2667 299° West 250 288 4,100 -600 Descending Toronto Center
06:58PM 43.3500 -79.3333 305° West 240 276 4,000 -840 Descending Toronto Center
06:59PM 43.3833 -79.4000 305° West 240 276 2,500 -1,020 Descending Toronto Center
07:00PM 43.4167 -79.5000 295° West 220 253 2,000 -300 Descending Toronto Center
07:01PM 43.4500 -79.5333 324° Northwest 210 242 2,000  Level Toronto Center
07:02PM 43.5000 -79.6167 310° West 200 230 2,000  Level Toronto Center
07:03PM 43.5500 -79.5833 26° Northeast 190 219 2,100  Climbing Toronto Center
07:05PM 43.6000 -79.5000 50° Northeast 140 161 2,100 -300 Level Toronto Center
07:06PM 43.6000 -79.4333 90° East 140 161 1,200 -840 Descending Toronto Center
07:07PM 43.6167 -79.4000 55° Northeast 120 138 500 -720 Descending Toronto Center